createdAt,value
2018-12-05T00:00:26.218Z,24.20
2018-12-05T00:02:55.082Z,16.43
2018-12-05T00:05:23.954Z,16.93
2018-12-05T00:07:52.997Z,13.00
2018-12-05T00:10:21.872Z,17.00
2018-12-05T00:12:50.805Z,14.53
2018-12-05T00:15:19.665Z,18.00
2018-12-05T00:17:48.514Z,15.67
2018-12-05T00:20:17.405Z,14.70
2018-12-05T00:22:46.341Z,15.50
2018-12-05T00:25:15.190Z,15.37
2018-12-05T00:27:44.044Z,14.93
2018-12-05T00:30:12.939Z,19.67
2018-12-05T00:32:41.792Z,15.73
2018-12-05T00:35:10.641Z,12.83
2018-12-05T00:37:39.512Z,12.27
2018-12-05T00:40:08.376Z,15.43
2018-12-05T00:42:37.240Z,11.87
2018-12-05T00:45:06.258Z,12.90
2018-12-05T00:47:35.107Z,15.70
2018-12-05T00:50:04.657Z,14.83
2018-12-05T00:52:33.524Z,13.30
2018-12-05T00:55:02.465Z,11.67
2018-12-05T00:57:31.346Z,10.40
2018-12-05T01:00:00.240Z,11.07
2018-12-05T01:02:29.107Z,11.30
2018-12-05T01:04:57.975Z,10.13
2018-12-05T01:07:26.979Z,12.57
2018-12-05T01:09:55.875Z,10.83
2018-12-05T01:12:24.771Z,13.60
2018-12-05T01:14:53.639Z,11.33
2018-12-05T01:17:22.580Z,12.97
2018-12-05T01:19:52.542Z,11.87
2018-12-05T01:22:21.450Z,11.63
2018-12-05T01:24:50.330Z,9.47
2018-12-05T01:27:19.316Z,10.07
2018-12-05T01:29:48.240Z,10.77
2018-12-05T01:32:17.154Z,12.80
2018-12-05T01:34:45.993Z,9.93
2018-12-05T01:37:14.930Z,11.03
2018-12-05T01:39:44.103Z,11.10
2018-12-05T01:42:13.033Z,13.50
2018-12-05T01:44:41.985Z,11.60
2018-12-05T01:47:10.945Z,8.37
2018-12-05T01:49:39.901Z,9.63
2018-12-05T01:52:08.793Z,11.00
2018-12-05T01:54:37.791Z,10.03
2018-12-05T01:57:06.646Z,9.63
2018-12-05T01:59:35.539Z,9.70
2018-12-05T02:02:04.566Z,12.17
2018-12-05T02:04:33.474Z,12.20
2018-12-05T02:07:02.488Z,10.10
2018-12-05T02:09:31.510Z,11.57
2018-12-05T02:12:00.546Z,11.63
2018-12-05T02:14:29.518Z,13.10
2018-12-05T02:16:58.483Z,11.77
2018-12-05T02:19:27.412Z,14.33
2018-12-05T02:21:56.279Z,15.50
2018-12-05T02:24:25.159Z,16.83
2018-12-05T02:26:54.078Z,12.23
2018-12-05T02:29:24.963Z,11.27
2018-12-05T02:31:54.022Z,13.73
2018-12-05T02:34:22.893Z,11.37
2018-12-05T02:36:51.794Z,11.33
2018-12-05T02:39:20.778Z,11.50
2018-12-05T02:41:49.667Z,11.33
2018-12-05T02:44:18.591Z,10.27
2018-12-05T02:46:47.551Z,10.77
2018-12-05T02:49:16.449Z,10.47
2018-12-05T02:51:45.338Z,16.40
2018-12-05T02:54:14.193Z,12.50
2018-12-05T02:56:43.122Z,13.87
2018-12-05T02:59:12.008Z,12.30
2018-12-05T03:01:40.871Z,16.53
2018-12-05T03:04:09.778Z,12.40
2018-12-05T03:06:38.674Z,10.67
2018-12-05T03:09:08.226Z,9.57
2018-12-05T03:11:37.311Z,12.17
2018-12-05T03:14:06.254Z,10.83
2018-12-05T03:16:35.232Z,12.17
2018-12-05T03:19:04.198Z,14.87
2018-12-05T03:21:33.129Z,13.50
2018-12-05T03:24:02.075Z,15.47
2018-12-05T03:26:31.042Z,11.90
2018-12-05T03:28:59.926Z,11.77
2018-12-05T03:31:28.829Z,11.13
2018-12-05T03:33:57.787Z,10.20
2018-12-05T03:36:26.664Z,13.50
2018-12-05T03:38:55.580Z,15.53
2018-12-05T03:41:24.685Z,10.80
2018-12-05T03:43:53.575Z,13.60
2018-12-05T03:46:22.439Z,14.27
2018-12-05T03:48:51.351Z,10.13
2018-12-05T03:51:20.260Z,14.40
2018-12-05T03:53:49.150Z,15.83
2018-12-05T03:56:17.997Z,10.83
2018-12-05T03:58:46.934Z,15.07
2018-12-05T04:01:15.793Z,18.17
2018-12-05T04:03:44.719Z,12.57
2018-12-05T04:06:13.778Z,9.23
2018-12-05T04:08:42.793Z,11.60
2018-12-05T04:11:11.758Z,10.90
2018-12-05T04:13:40.995Z,13.13
2018-12-05T04:16:10.046Z,12.53
2018-12-05T04:18:38.950Z,11.77
2018-12-05T04:21:07.805Z,12.57
2018-12-05T04:23:36.768Z,11.70
2018-12-05T04:26:05.831Z,15.90
2018-12-05T04:28:34.837Z,11.40
2018-12-05T04:31:03.742Z,13.80
2018-12-05T04:33:32.719Z,11.17
2018-12-05T04:36:01.585Z,12.60
2018-12-05T04:38:30.579Z,11.37
2018-12-05T04:40:59.476Z,10.83
2018-12-05T04:43:28.384Z,16.23
2018-12-05T04:45:57.587Z,11.70
2018-12-05T04:48:26.598Z,9.20
2018-12-05T04:50:55.544Z,8.97
2018-12-05T04:53:24.442Z,11.63
2018-12-05T04:55:53.330Z,11.23
2018-12-05T04:58:22.253Z,12.33
2018-12-05T05:00:51.211Z,13.93
2018-12-05T05:03:20.112Z,11.23
2018-12-05T05:05:49.003Z,9.00
2018-12-05T05:08:17.941Z,12.00
2018-12-05T05:10:46.913Z,15.50
2018-12-05T05:13:15.885Z,12.43
2018-12-05T05:15:44.768Z,10.47
2018-12-05T05:18:13.634Z,13.37
2018-12-05T05:20:42.524Z,10.43
2018-12-05T05:23:11.423Z,8.43
2018-12-05T05:25:40.416Z,10.20
2018-12-05T05:28:09.531Z,12.03
2018-12-05T05:30:38.470Z,11.30
2018-12-05T05:33:07.417Z,12.20
2018-12-05T05:35:36.317Z,8.87
2018-12-05T05:38:05.225Z,11.10
2018-12-05T05:40:34.233Z,13.40
2018-12-05T05:43:03.207Z,13.83
2018-12-05T05:45:32.221Z,10.63
2018-12-05T05:48:01.129Z,12.00
2018-12-05T05:50:30.055Z,11.77
2018-12-05T05:52:59.041Z,16.07
2018-12-05T05:55:27.967Z,10.70
2018-12-05T05:57:56.789Z,12.20
2018-12-05T06:00:25.757Z,13.60
2018-12-05T06:02:54.693Z,13.47
2018-12-05T06:05:23.638Z,11.23
2018-12-05T06:07:52.598Z,16.77
2018-12-05T06:10:21.562Z,16.10
2018-12-05T06:12:50.714Z,17.17
2018-12-05T06:15:19.690Z,14.30
2018-12-05T06:17:48.550Z,12.37
2018-12-05T06:20:17.473Z,12.60
2018-12-05T06:22:46.442Z,12.50
2018-12-05T06:25:15.359Z,12.43
2018-12-05T06:27:44.227Z,8.73
2018-12-05T06:30:13.242Z,13.40
2018-12-05T06:32:42.106Z,10.23
2018-12-05T06:35:11.904Z,11.93
2018-12-05T06:37:40.817Z,15.23
2018-12-05T06:40:10.404Z,15.30
2018-12-05T06:42:39.943Z,18.23
2018-12-05T06:45:08.950Z,15.43
2018-12-05T06:47:37.929Z,17.93
2018-12-05T06:50:07.840Z,12.67
2018-12-05T06:52:38.069Z,34.90
2018-12-05T06:55:07.803Z,18.73
2018-12-05T06:57:36.770Z,16.23
2018-12-05T07:00:08.160Z,19.90
2018-12-05T07:02:37.350Z,17.20
2018-12-05T07:05:07.245Z,15.40
2018-12-05T07:12:26.122Z,16.43
2018-12-05T07:14:55.106Z,11.37
2018-12-05T07:17:23.984Z,12.50
2018-12-05T07:19:52.890Z,11.67
2018-12-05T07:22:22.805Z,14.37
2018-12-05T07:24:51.698Z,10.60
2018-12-05T07:27:20.687Z,15.67
2018-12-05T07:29:49.625Z,15.37
2018-12-05T07:32:18.564Z,14.17
2018-12-05T07:34:47.442Z,12.67
2018-12-05T07:37:16.362Z,12.97
2018-12-05T07:39:45.335Z,20.33
2018-12-05T07:42:14.237Z,15.63
2018-12-05T07:44:43.230Z,12.90
2018-12-05T07:47:12.254Z,13.13
2018-12-05T07:49:41.195Z,13.53
2018-12-05T07:52:10.107Z,14.07
2018-12-05T07:54:39.125Z,13.57
2018-12-05T07:57:08.093Z,12.67
2018-12-05T07:59:37.060Z,13.43
2018-12-05T08:02:06.178Z,11.63
2018-12-05T08:04:35.086Z,14.00
2018-12-05T08:07:04.084Z,15.93
2018-12-05T08:09:33.038Z,12.80
2018-12-05T08:12:02.968Z,14.83
2018-12-05T08:14:32.046Z,16.07
2018-12-05T08:17:01.394Z,11.60
2018-12-05T08:19:30.330Z,10.50
2018-12-05T08:21:59.554Z,13.43
2018-12-05T08:24:28.422Z,12.13
2018-12-05T08:26:57.313Z,17.17
2018-12-05T08:29:26.218Z,14.63
2018-12-05T08:31:54.861Z,12.33
2018-12-05T08:34:23.456Z,14.53
2018-12-05T08:36:52.069Z,14.20
2018-12-05T08:39:21.648Z,13.63
2018-12-05T08:41:50.274Z,14.33
2018-12-05T08:44:18.842Z,13.23
2018-12-05T08:46:47.703Z,17.63
2018-12-05T08:49:16.645Z,17.10
2018-12-05T08:51:45.619Z,22.80
2018-12-05T08:54:20.901Z,22.20
2018-12-05T08:56:45.490Z,15.90
2018-12-05T08:59:14.438Z,17.47
2018-12-05T09:01:43.424Z,22.23
2018-12-05T09:04:12.311Z,18.47
2018-12-05T09:06:41.211Z,27.67
2018-12-05T09:09:10.098Z,15.00
2018-12-05T09:11:39.010Z,20.30
2018-12-05T09:14:07.950Z,22.47
2018-12-05T09:16:36.870Z,19.10
2018-12-05T09:19:05.887Z,18.27
2018-12-05T09:21:34.906Z,20.53
2018-12-05T09:24:04.984Z,20.43
2018-12-05T09:26:33.916Z,17.30
2018-12-05T09:29:02.773Z,17.93
2018-12-05T09:31:31.670Z,17.20
2018-12-05T09:34:00.514Z,15.43
2018-12-05T09:36:29.384Z,17.93
2018-12-05T09:38:58.233Z,14.53
2018-12-05T09:41:27.090Z,19.33
2018-12-05T09:43:56.345Z,14.90
2018-12-05T09:46:25.215Z,17.97
2018-12-05T09:48:54.400Z,18.83
2018-12-05T09:51:23.278Z,20.37
2018-12-05T09:53:52.146Z,18.77
2018-12-05T09:56:22.035Z,16.13
2018-12-05T09:58:50.893Z,23.07
2018-12-05T10:01:20.102Z,21.43
2018-12-05T10:03:48.978Z,19.90
2018-12-05T10:06:17.842Z,24.80
2018-12-05T10:08:46.721Z,19.07
2018-12-05T10:11:15.577Z,16.53
2018-12-05T10:13:44.434Z,22.20
2018-12-05T10:16:14.342Z,24.67
2018-12-05T10:18:43.197Z,22.77
2018-12-05T10:21:12.050Z,16.53
2018-12-05T10:23:40.918Z,16.70
2018-12-05T10:26:09.780Z,15.77
2018-12-05T10:28:38.618Z,15.90
2018-12-05T10:31:07.569Z,16.80
2018-12-05T10:33:36.430Z,17.67
2018-12-05T10:36:05.306Z,16.57
2018-12-05T10:38:34.256Z,16.10
2018-12-05T10:41:03.307Z,18.07
2018-12-05T10:43:32.250Z,15.27
2018-12-05T10:46:01.126Z,22.37
2018-12-05T10:48:29.980Z,22.03
2018-12-05T10:50:58.861Z,17.37
2018-12-05T10:53:27.765Z,27.70
2018-12-05T10:55:56.599Z,18.27
2018-12-05T10:58:25.490Z,17.73
2018-12-05T11:00:59.666Z,16.53
2018-12-05T11:03:35.240Z,16.93
2018-12-05T11:06:11.143Z,20.10
2018-12-05T11:08:46.402Z,22.90
2018-12-05T11:11:20.746Z,21.63
2018-12-05T11:13:55.113Z,12.97
2018-12-05T11:16:29.478Z,13.43
2018-12-05T11:19:03.800Z,15.83
2018-12-05T11:21:38.118Z,14.73
2018-12-05T11:24:14.204Z,14.93
2018-12-05T11:26:43.263Z,16.03
2018-12-05T11:29:12.100Z,18.00
2018-12-05T11:31:41.065Z,15.97
2018-12-05T11:34:09.937Z,21.23
2018-12-05T11:36:38.771Z,14.83
2018-12-05T11:39:08.374Z,14.40
2018-12-05T11:41:37.226Z,19.03
2018-12-05T11:44:06.149Z,14.97
2018-12-05T11:46:35.215Z,15.00
2018-12-05T11:49:04.340Z,15.60
2018-12-05T11:51:33.194Z,21.83
2018-12-05T11:54:02.055Z,21.17
2018-12-05T11:56:31.002Z,16.87
2018-12-05T11:58:59.987Z,23.73
2018-12-05T12:01:28.969Z,17.57
2018-12-05T12:03:58.226Z,20.53
2018-12-05T12:06:27.170Z,19.43
2018-12-05T12:08:56.163Z,23.67
2018-12-05T12:11:25.344Z,18.70
2018-12-05T12:13:54.222Z,14.37
2018-12-05T12:16:23.114Z,20.23
2018-12-05T12:18:51.967Z,17.20
2018-12-05T12:21:21.005Z,37.37
2018-12-05T12:23:49.982Z,29.17
2018-12-05T12:26:19.023Z,23.00
2018-12-05T12:28:47.902Z,16.10
2018-12-05T12:31:16.733Z,17.87
2018-12-05T12:33:45.663Z,18.10
2018-12-05T12:36:14.487Z,21.37
2018-12-05T12:38:43.588Z,45.40
2018-12-05T12:41:12.482Z,121.93
2018-12-05T12:43:41.382Z,107.50
2018-12-05T12:46:10.233Z,35.73
2018-12-05T12:48:39.524Z,29.73
2018-12-05T12:51:08.562Z,20.17
2018-12-05T12:53:37.656Z,19.33
2018-12-05T12:56:06.650Z,16.30
2018-12-05T12:58:35.534Z,18.57
2018-12-05T13:01:04.420Z,16.63
2018-12-05T13:03:33.322Z,20.50
2018-12-05T13:06:02.163Z,18.30
2018-12-05T13:08:31.017Z,21.77
2018-12-05T13:11:00.039Z,22.33
2018-12-05T13:13:28.935Z,19.37
2018-12-05T13:15:57.786Z,17.97
2018-12-05T13:18:26.666Z,18.73
2018-12-05T13:20:55.559Z,15.13
2018-12-05T13:23:24.430Z,17.77
2018-12-05T13:25:53.320Z,16.73
2018-12-05T13:28:22.284Z,14.03
2018-12-05T13:30:51.146Z,20.27
2018-12-05T13:33:20.056Z,16.97
2018-12-05T13:35:49.034Z,20.97
2018-12-05T13:38:17.902Z,19.07
2018-12-05T13:40:47.089Z,15.70
2018-12-05T13:43:16.131Z,13.50
2018-12-05T13:45:45.109Z,16.43
2018-12-05T13:48:14.065Z,14.03
2018-12-05T13:50:42.939Z,17.30
2018-12-05T13:53:11.804Z,16.63
2018-12-05T13:55:40.669Z,14.60
2018-12-05T13:58:09.547Z,14.70
2018-12-05T14:00:38.417Z,14.57
2018-12-05T14:03:07.277Z,12.23
2018-12-05T14:05:36.147Z,14.20
2018-12-05T14:08:05.188Z,21.03
2018-12-05T14:10:34.086Z,27.80
2018-12-05T14:13:03.054Z,24.43
2018-12-05T14:15:31.995Z,16.03
2018-12-05T14:18:02.343Z,33.67
2018-12-05T14:20:31.998Z,43.30
2018-12-05T14:23:00.943Z,22.13
2018-12-05T14:25:29.937Z,18.50
2018-12-05T14:27:58.770Z,16.07
2018-12-05T14:30:27.719Z,18.73
2018-12-05T14:32:56.539Z,17.93
2018-12-05T14:35:25.536Z,17.23
2018-12-05T14:37:54.409Z,14.37
2018-12-05T14:40:23.309Z,18.03
2018-12-05T14:42:52.147Z,20.47
2018-12-05T14:45:21.062Z,15.67
2018-12-05T14:47:49.955Z,19.00
2018-12-05T14:50:18.826Z,17.97
2018-12-05T14:52:47.670Z,23.63
2018-12-05T14:55:16.693Z,29.97
2018-12-05T14:57:45.615Z,22.73
2018-12-05T15:00:14.487Z,22.23
2018-12-05T15:02:43.329Z,19.13
2018-12-05T15:05:12.239Z,21.37
2018-12-05T15:07:41.133Z,23.60
2018-12-05T15:10:10.073Z,26.47
2018-12-05T15:12:38.951Z,30.50
2018-12-05T15:15:08.013Z,23.23
2018-12-05T15:17:36.916Z,18.83
2018-12-05T15:20:05.788Z,18.93
2018-12-05T15:22:34.683Z,20.57
2018-12-05T15:25:03.675Z,19.97
2018-12-05T15:27:32.831Z,19.63
2018-12-05T15:30:01.756Z,22.17
2018-12-05T15:32:30.630Z,18.70
2018-12-05T15:34:59.528Z,19.33
2018-12-05T15:37:28.447Z,19.80
2018-12-05T15:39:57.412Z,22.73
2018-12-05T15:42:26.293Z,25.17
2018-12-05T15:44:55.196Z,26.03
2018-12-05T15:47:24.086Z,19.40
2018-12-05T15:49:52.980Z,28.00
2018-12-05T15:52:22.054Z,22.80
2018-12-05T15:54:50.934Z,35.40
2018-12-05T15:57:19.917Z,27.03
2018-12-05T15:59:49.166Z,27.83
2018-12-05T16:02:18.021Z,23.30
2018-12-05T16:04:46.907Z,21.73
2018-12-05T16:07:15.772Z,22.43
2018-12-05T16:09:44.671Z,23.37
2018-12-05T16:12:13.542Z,28.73
2018-12-05T16:14:42.427Z,23.97
2018-12-05T16:17:11.445Z,23.03
2018-12-05T16:19:40.342Z,25.00
2018-12-05T16:22:09.257Z,21.30
2018-12-05T16:24:38.104Z,22.23
2018-12-05T16:27:06.995Z,25.17
2018-12-05T16:29:35.934Z,29.03
2018-12-05T16:32:04.823Z,20.13
2018-12-05T16:34:33.825Z,19.53
2018-12-05T16:37:02.786Z,24.97
2018-12-05T16:39:31.827Z,20.87
2018-12-05T16:42:00.825Z,18.47
2018-12-05T16:44:29.761Z,20.07
2018-12-05T16:46:58.661Z,23.27
2018-12-05T16:49:27.510Z,19.60
2018-12-05T16:51:56.427Z,21.37
2018-12-05T16:54:25.599Z,19.73
2018-12-05T16:56:54.501Z,20.27
2018-12-05T16:59:23.389Z,19.30
2018-12-05T17:01:52.254Z,20.43
2018-12-05T17:04:21.128Z,19.57
2018-12-05T17:06:51.074Z,24.50
2018-12-05T17:09:25.995Z,18.37
2018-12-05T17:11:50.829Z,16.67
2018-12-05T17:14:20.310Z,17.23
2018-12-05T17:16:49.246Z,19.93
2018-12-05T17:19:18.104Z,17.00
2018-12-05T17:21:47.091Z,19.47
2018-12-05T17:24:18.245Z,16.60
2018-12-05T17:26:47.103Z,22.97
2018-12-05T17:29:16.718Z,20.57
2018-12-05T17:31:46.645Z,17.37
2018-12-05T17:34:16.533Z,23.07
2018-12-05T17:36:47.613Z,21.73
2018-12-05T17:39:17.507Z,22.77
2018-12-05T17:41:46.439Z,25.73
2018-12-05T17:44:15.578Z,18.97
2018-12-05T17:46:48.208Z,17.10
2018-12-05T17:49:17.098Z,18.40
2018-12-05T17:51:46.043Z,20.20
2018-12-05T17:54:15.193Z,17.50
2018-12-05T17:56:44.129Z,19.87
2018-12-05T17:59:13.037Z,16.70
2018-12-05T18:01:42.235Z,18.77
2018-12-05T18:04:11.230Z,25.40
2018-12-05T18:06:40.111Z,23.73
2018-12-05T18:09:09.301Z,23.60
2018-12-05T18:11:38.674Z,20.03
2018-12-05T18:14:07.649Z,18.87
2018-12-05T18:16:36.624Z,19.57
2018-12-05T18:19:05.830Z,21.80
2018-12-05T18:21:34.853Z,21.47
2018-12-05T18:24:05.342Z,20.30
2018-12-05T18:26:34.343Z,20.03
2018-12-05T18:29:03.446Z,20.73
2018-12-05T18:31:33.344Z,23.20
2018-12-05T18:34:03.925Z,23.13
2018-12-05T18:36:33.892Z,23.93
2018-12-05T18:39:03.174Z,19.10
2018-12-05T18:41:32.049Z,19.53
2018-12-05T18:44:00.905Z,22.73
2018-12-05T18:46:29.794Z,24.37
2018-12-05T18:48:58.695Z,17.23
2018-12-05T18:51:27.590Z,25.33
2018-12-05T18:53:56.482Z,22.73
2018-12-05T18:56:25.623Z,13.07
2018-12-05T18:58:54.613Z,17.10
2018-12-05T19:01:23.449Z,17.30
2018-12-05T19:03:52.859Z,16.17
2018-12-05T19:06:21.801Z,17.43
2018-12-05T19:08:50.801Z,17.43
2018-12-05T19:11:20.543Z,26.00
2018-12-05T19:13:54.975Z,17.97
2018-12-05T19:16:23.905Z,22.77
2018-12-05T19:18:52.753Z,20.23
2018-12-05T19:21:21.698Z,23.90
2018-12-05T19:23:50.545Z,29.27
2018-12-05T19:26:19.463Z,24.53
2018-12-05T19:28:48.338Z,21.30
2018-12-05T19:31:19.431Z,16.97
2018-12-05T19:33:48.069Z,23.07
2018-12-05T19:36:16.963Z,22.33
2018-12-05T19:38:45.821Z,22.40
2018-12-05T19:41:14.712Z,20.97
2018-12-05T19:43:43.556Z,30.00
2018-12-05T19:46:12.680Z,21.53
2018-12-05T19:48:44.427Z,19.03
2018-12-05T19:51:13.466Z,23.63
2018-12-05T19:53:42.328Z,20.07
2018-12-05T19:56:12.102Z,16.40
2018-12-05T19:58:40.960Z,22.10
2018-12-05T20:01:09.837Z,23.30
2018-12-05T20:03:38.861Z,20.70
2018-12-05T20:06:07.705Z,21.60
2018-12-05T20:08:36.638Z,19.90
2018-12-05T20:11:07.846Z,18.03
2018-12-05T20:13:39.872Z,16.87
2018-12-05T20:16:08.781Z,18.57
2018-12-05T20:18:37.666Z,22.50
2018-12-05T20:21:06.668Z,20.13
2018-12-05T20:23:35.572Z,14.40
2018-12-05T20:26:04.565Z,17.10
2018-12-05T20:28:33.460Z,19.20
2018-12-05T20:31:02.334Z,17.07
2018-12-05T20:33:31.988Z,30.27
2018-12-05T20:36:00.886Z,20.50
2018-12-05T20:38:29.838Z,17.90
2018-12-05T20:40:59.115Z,18.83
2018-12-05T20:43:27.993Z,21.00
2018-12-05T20:45:56.913Z,17.30
2018-12-05T20:48:26.181Z,17.50
2018-12-05T20:50:55.186Z,18.53
2018-12-05T20:53:24.140Z,24.87
2018-12-05T20:55:53.217Z,18.63
2018-12-05T20:58:22.209Z,22.43
2018-12-05T21:00:51.150Z,25.93
2018-12-05T21:03:20.076Z,23.27
2018-12-05T21:05:49.010Z,23.07
2018-12-05T21:08:18.171Z,21.60
2018-12-05T21:10:47.121Z,25.03
2018-12-05T21:13:16.051Z,21.40
2018-12-05T21:15:45.002Z,22.50
2018-12-05T21:18:14.074Z,23.23
2018-12-05T21:20:43.182Z,22.03
2018-12-05T21:23:12.215Z,29.13
2018-12-05T21:25:41.209Z,31.93
2018-12-05T21:28:10.264Z,32.90
2018-12-05T21:30:39.333Z,37.33
2018-12-05T21:33:08.293Z,31.97
2018-12-05T21:35:37.296Z,36.83
2018-12-05T21:38:06.256Z,25.70
2018-12-05T21:40:35.212Z,22.53
2018-12-05T21:43:04.079Z,27.00
2018-12-05T21:45:33.002Z,24.50
2018-12-05T21:48:01.983Z,29.97
2018-12-05T21:50:30.896Z,35.30
2018-12-05T21:52:59.745Z,30.40
2018-12-05T21:55:28.618Z,26.73
2018-12-05T21:57:57.755Z,23.97
2018-12-05T22:00:26.819Z,26.57
2018-12-05T22:02:55.702Z,23.93
2018-12-05T22:05:24.557Z,21.40
2018-12-05T22:07:53.426Z,20.67
2018-12-05T22:10:22.266Z,21.17
2018-12-05T22:12:51.153Z,18.17
2018-12-05T22:15:20.993Z,20.87
2018-12-05T22:17:49.916Z,23.63
2018-12-05T22:20:18.724Z,24.50
2018-12-05T22:22:47.635Z,23.67
2018-12-05T22:25:16.474Z,18.50
2018-12-05T22:27:45.366Z,22.70
2018-12-05T22:30:14.223Z,19.47
2018-12-05T22:32:43.181Z,29.87
2018-12-05T22:35:12.282Z,23.10
2018-12-05T22:37:41.250Z,24.03
2018-12-05T22:40:10.411Z,24.67
2018-12-05T22:42:39.300Z,25.17
2018-12-05T22:45:08.542Z,25.60
2018-12-05T22:47:37.403Z,27.23
2018-12-05T22:50:07.460Z,32.23
2018-12-05T22:52:36.367Z,43.37
2018-12-05T22:55:05.358Z,33.20
2018-12-05T22:57:34.241Z,21.73
2018-12-05T23:00:03.340Z,22.10
2018-12-05T23:02:32.222Z,33.67
2018-12-05T23:05:01.113Z,45.57
2018-12-05T23:07:29.983Z,41.37
2018-12-05T23:09:59.185Z,66.23
2018-12-05T23:12:28.261Z,51.70
2018-12-05T23:14:57.145Z,64.47
2018-12-05T23:17:25.993Z,26.90
2018-12-05T23:19:54.881Z,22.43
2018-12-05T23:22:23.761Z,24.00
2018-12-05T23:24:52.594Z,23.43
2018-12-05T23:27:21.473Z,17.60
2018-12-05T23:29:50.336Z,24.37
2018-12-05T23:32:19.180Z,23.33
2018-12-05T23:34:48.188Z,19.57
2018-12-05T23:37:16.991Z,18.90
2018-12-05T23:39:45.861Z,21.70
2018-12-05T23:42:14.698Z,23.53
2018-12-05T23:44:43.575Z,19.70
2018-12-05T23:47:13.439Z,22.73
2018-12-05T23:49:44.190Z,23.60
2018-12-05T23:52:13.090Z,25.73
2018-12-05T23:54:42.012Z,25.30
2018-12-05T23:57:10.890Z,22.90
2018-12-05T23:59:39.795Z,12.17
